Italic G — IBYH — position and weather

sailwx.info

Track history (hours):
 
Tides and Currents Weather Stations Pressure Air Temp Water Temp Dewpoint Dewpoint Depression Visibility Wind Speed Wind Dir Waves Ship Positions

Italic G

Last reported at 2016-Jul-26 17:32 UTC. Time now 2016-Jul-26 17:58 UTC.
Position N 53°31' E 009°56'.

Length 229 m; draft 14.3 m.

Type: Cargo ship. MMSI: 247282300.

Date/timePositionNaut miles runAvg speedWind from/ knotsBaromVisibWave heightAir tempDewpointWater temp
2016-Jul-26 17:32N 53°31' E 009°56'0 0.0
2016-Jul-26 16:32N 53°31' E 009°56'0 0.0
2016-Jul-26 15:32N 53°31' E 009°56'0 0.0
2016-Jul-26 14:32N 53°31' E 009°56'0 0.0
2016-Jul-26 13:32N 53°31' E 009°56'0 0.0
2016-Jul-26 12:32N 53°31' E 009°56'0 0.0
2016-Jul-26 11:32N 53°31' E 009°56'0 0.0
2016-Jul-26 10:32N 53°31' E 009°56'0 0.0
2016-Jul-26 09:32N 53°31' E 009°56'0 0.0
2016-Jul-26 08:32N 53°31' E 009°56'0 0.1
2016-Jul-26 07:34N 53°31' E 009°56'4 4.3
2016-Jul-26 06:34N 53°33' E 009°50'10 9.8
2016-Jul-26 05:34N 53°37' E 009°34'1111.0
2016-Jul-26 04:34N 53°46' E 009°24'1111.3
2016-Jul-26 03:34N 53°53' E 009°09'1212.2
2016-Jul-26 02:33N 53°50' E 008°49'1312.5
2016-Jul-26 01:32N 53°58' E 008°32'1313.1
2016-Jul-26 00:32N 53°59' E 008°10'6 6.4
2016-Jul-25 23:33N 54°00' E 007°59'3 3.3
2016-Jul-25 22:33N 54°02' E 007°55'8 8.4
2016-Jul-25 21:33N 54°06' E 007°43'4 4.3
2016-Jul-25 20:33N 54°09' E 007°36'1010.3
2016-Jul-25 19:33N 54°09' E 007°18'2610.5
2016-Jul-25 17:03N 54°09' E 006°34'6711.2
2016-Jul-25 11:05N 55°15' E 006°33'611.4
2016-Jul-25 10:33N 55°21' E 006°34'195 9.7
2016-Jul-24 14:33N 57°50' E 010°24'1111.3
2016-Jul-24 13:34N 57°48' E 010°45'1111.3
2016-Jul-24 12:33N 57°41' E 011°00'1312.6
2016-Jul-24 11:33N 57°32' E 011°18'1212.2
2016-Jul-24 10:33N 57°22' E 011°30'1212.4
2016-Jul-24 09:33N 57°10' E 011°38'1211.8
2016-Jul-24 08:33N 56°59' E 011°45'1211.9
2016-Jul-24 07:33N 56°48' E 011°52'1211.8
2016-Jul-24 06:33N 56°37' E 011°44'1312.7
2016-Jul-24 05:33N 56°26' E 011°33'1312.8
2016-Jul-24 04:33N 56°15' E 011°21'1313.1
2016-Jul-24 03:33N 56°04' E 011°08'1212.4
2016-Jul-24 02:34N 55°54' E 010°54'1010.3
2016-Jul-24 01:33N 55°44' E 010°48'1312.2
2016-Jul-24 00:29N 55°32' E 010°52'1112.2
2016-Jul-23 23:33N 55°22' E 011°02'1110.5
2016-Jul-23 22:33N 55°12' E 011°05'1111.3
2016-Jul-23 21:33N 55°01' E 010°59'1212.4
2016-Jul-23 20:33N 54°50' E 010°50'1110.5
2016-Jul-23 19:33N 54°39' E 010°52'1212.1
2016-Jul-23 18:33N 54°36' E 011°12'1312.8
2016-Jul-23 17:33N 54°30' E 011°32'1212.2
2016-Jul-23 16:33N 54°27' E 011°52'1211.7
2016-Jul-23 15:33N 54°28' E 012°12'1110.8
2016-Jul-23 14:33N 54°38' E 012°20'1211.5
2016-Jul-23 13:33N 54°44' E 012°37'1211.6
2016-Jul-23 12:33N 54°49' E 012°55'1211.5
2016-Jul-23 11:33N 54°54' E 013°14'1111.5
2016-Jul-23 10:33N 54°58' E 013°32'1211.6
2016-Jul-23 09:33N 55°01' E 013°51'1110.9
2016-Jul-23 08:33N 55°07' E 014°08'1211.7
2016-Jul-23 07:33N 55°16' E 014°21'1211.6
2016-Jul-23 06:33N 55°25' E 014°33'2311.5
2016-Jul-23 04:34N 55°35' E 015°09'1211.5
2016-Jul-23 03:33N 55°39' E 015°29'1211.6
2016-Jul-23 02:33N 55°42' E 015°49'1211.8
2016-Jul-23 01:33N 55°45' E 016°09'1211.8
2016-Jul-23 00:33N 55°48' E 016°29'1211.6
2016-Jul-22 23:33N 55°51' E 016°49'1411.7
2016-Jul-22 22:22N 55°54' E 017°13'29411.3
2016-Jul-21 20:24N 59°37' E 023°13'1111.7
2016-Jul-21 19:27N 59°41' E 023°34'1111.7
2016-Jul-21 18:30N 59°44' E 023°55'1111.7
2016-Jul-21 17:31N 59°47' E 024°17'1411.6
2016-Jul-21 16:21N 59°49' E 024°43'5411.2
2016-Jul-21 11:33N 60°04' E 026°27'4 4.5
2016-Jul-21 10:33N 60°09' E 026°29'0 0.0
2016-Jul-21 09:33N 60°09' E 026°29'0 0.0
2016-Jul-21 08:31N 60°09' E 026°29'0 0.0
2016-Jul-21 07:31N 60°09' E 026°29'0 0.0
2016-Jul-21 04:32N 60°08' E 026°29'0 0.0
2016-Jul-21 03:29N 60°08' E 026°29'0 0.0
2016-Jul-21 02:26N 60°09' E 026°29'0 0.0
2016-Jul-21 01:32N 60°09' E 026°29'0 0.0
2016-Jul-21 00:32N 60°08' E 026°29'0 0.0
2016-Jul-20 23:32N 60°09' E 026°29'0 0.0
2016-Jul-20 22:32N 60°08' E 026°29'0 0.0
2016-Jul-20 21:29N 60°08' E 026°29'0 0.0
2016-Jul-20 20:33N 60°08' E 026°29'0 0.1
2016-Jul-20 19:33N 60°09' E 026°29'0 0.1
2016-Jul-20 18:34N 60°09' E 026°29'0 0.1
2016-Jul-20 17:31N 60°09' E 026°29'0 0.1
2016-Jul-20 16:33N 60°08' E 026°29'0 0.0
2016-Jul-20 15:33N 60°08' E 026°29'0 0.0
2016-Jul-20 14:30N 60°08' E 026°29'0 0.0
2016-Jul-20 13:12N 60°08' E 026°29'0 0.1
2016-Jul-20 12:33N 60°09' E 026°29'0 0.0
2016-Jul-20 11:33N 60°09' E 026°29'0 0.0
2016-Jul-20 10:33N 60°09' E 026°29'0 0.0
2016-Jul-20 09:33N 60°09' E 026°29'0 0.0
2016-Jul-20 08:33N 60°08' E 026°29'0 0.0
2016-Jul-20 07:33N 60°08' E 026°29'0 0.0
2016-Jul-20 06:33N 60°08' E 026°29'0 0.1
2016-Jul-20 05:33N 60°08' E 026°29'0 0.0
2016-Jul-20 04:27N 60°08' E 026°29'0 0.0
2016-Jul-20 03:33N 60°08' E 026°29'0 0.0
2016-Jul-20 02:33N 60°08' E 026°29'0 0.1
2016-Jul-20 01:33N 60°08' E 026°29'0 0.2
2016-Jul-20 00:33N 60°09' E 026°29'0 0.0
2016-Jul-19 23:33N 60°09' E 026°29'0 0.2
2016-Jul-19 22:33N 60°08' E 026°29'9 9.0
2016-Jul-19 21:34N 60°01' E 026°40'1211.9
2016-Jul-19 20:33N 59°60' E 027°04'1212.4
2016-Jul-19 19:33N 60°06' E 027°25'1212.4
2016-Jul-19 18:33N 60°13' E 027°46'1212.2
2016-Jul-19 17:33N 60°22' E 028°01'22 1.3
2016-Jul-19 01:10N 60°37' E 028°34'  
2016-Jul-16 19:15N 60°32' E 028°23'  
Track history (hours):
 
Tides and Currents Weather Stations Pressure Air Temp Water Temp Dewpoint Dewpoint Depression Visibility Wind Speed Wind Dir Waves Ship Positions

Italic G

Last reported at 2016-Jul-26 17:32 UTC. Time now 2016-Jul-26 17:58 UTC.
Position N 53°31' E 009°56'.

Length 229 m; draft 14.3 m.

Type: Cargo ship. MMSI: 247282300.

Date/timePositionNaut miles runAvg speedWind from/ knotsBaromVisibWave heightAir tempDewpointWater temp
2016-Jul-26 17:32N 53°31' E 009°56'0 0.0
2016-Jul-26 16:32N 53°31' E 009°56'0 0.0
2016-Jul-26 15:32N 53°31' E 009°56'0 0.0
2016-Jul-26 14:32N 53°31' E 009°56'0 0.0
2016-Jul-26 13:32N 53°31' E 009°56'0 0.0
2016-Jul-26 12:32N 53°31' E 009°56'0 0.0
2016-Jul-26 11:32N 53°31' E 009°56'0 0.0
2016-Jul-26 10:32N 53°31' E 009°56'0 0.0
2016-Jul-26 09:32N 53°31' E 009°56'0 0.0
2016-Jul-26 08:32N 53°31' E 009°56'0 0.1
2016-Jul-26 07:34N 53°31' E 009°56'4 4.3
2016-Jul-26 06:34N 53°33' E 009°50'10 9.8
2016-Jul-26 05:34N 53°37' E 009°34'1111.0
2016-Jul-26 04:34N 53°46' E 009°24'1111.3
2016-Jul-26 03:34N 53°53' E 009°09'1212.2
2016-Jul-26 02:33N 53°50' E 008°49'1312.5
2016-Jul-26 01:32N 53°58' E 008°32'1313.1
2016-Jul-26 00:32N 53°59' E 008°10'6 6.4
2016-Jul-25 23:33N 54°00' E 007°59'3 3.3
2016-Jul-25 22:33N 54°02' E 007°55'8 8.4
2016-Jul-25 21:33N 54°06' E 007°43'4 4.3
2016-Jul-25 20:33N 54°09' E 007°36'1010.3
2016-Jul-25 19:33N 54°09' E 007°18'2610.5
2016-Jul-25 17:03N 54°09' E 006°34'6711.2
2016-Jul-25 11:05N 55°15' E 006°33'611.4
2016-Jul-25 10:33N 55°21' E 006°34'195 9.7
2016-Jul-24 14:33N 57°50' E 010°24'1111.3
2016-Jul-24 13:34N 57°48' E 010°45'1111.3
2016-Jul-24 12:33N 57°41' E 011°00'1312.6
2016-Jul-24 11:33N 57°32' E 011°18'1212.2
2016-Jul-24 10:33N 57°22' E 011°30'1212.4
2016-Jul-24 09:33N 57°10' E 011°38'1211.8
2016-Jul-24 08:33N 56°59' E 011°45'1211.9
2016-Jul-24 07:33N 56°48' E 011°52'1211.8
2016-Jul-24 06:33N 56°37' E 011°44'1312.7
2016-Jul-24 05:33N 56°26' E 011°33'1312.8
2016-Jul-24 04:33N 56°15' E 011°21'1313.1
2016-Jul-24 03:33N 56°04' E 011°08'1212.4
2016-Jul-24 02:34N 55°54' E 010°54'1010.3
2016-Jul-24 01:33N 55°44' E 010°48'1312.2
2016-Jul-24 00:29N 55°32' E 010°52'1112.2
2016-Jul-23 23:33N 55°22' E 011°02'1110.5
2016-Jul-23 22:33N 55°12' E 011°05'1111.3
2016-Jul-23 21:33N 55°01' E 010°59'1212.4
2016-Jul-23 20:33N 54°50' E 010°50'1110.5
2016-Jul-23 19:33N 54°39' E 010°52'1212.1
2016-Jul-23 18:33N 54°36' E 011°12'1312.8
2016-Jul-23 17:33N 54°30' E 011°32'1212.2
2016-Jul-23 16:33N 54°27' E 011°52'1211.7
2016-Jul-23 15:33N 54°28' E 012°12'1110.8
2016-Jul-23 14:33N 54°38' E 012°20'1211.5
2016-Jul-23 13:33N 54°44' E 012°37'1211.6
2016-Jul-23 12:33N 54°49' E 012°55'1211.5
2016-Jul-23 11:33N 54°54' E 013°14'1111.5
2016-Jul-23 10:33N 54°58' E 013°32'1211.6
2016-Jul-23 09:33N 55°01' E 013°51'1110.9
2016-Jul-23 08:33N 55°07' E 014°08'1211.7
2016-Jul-23 07:33N 55°16' E 014°21'1211.6
2016-Jul-23 06:33N 55°25' E 014°33'2311.5
2016-Jul-23 04:34N 55°35' E 015°09'1211.5
2016-Jul-23 03:33N 55°39' E 015°29'1211.6
2016-Jul-23 02:33N 55°42' E 015°49'1211.8
2016-Jul-23 01:33N 55°45' E 016°09'1211.8
2016-Jul-23 00:33N 55°48' E 016°29'1211.6
2016-Jul-22 23:33N 55°51' E 016°49'1411.7
2016-Jul-22 22:22N 55°54' E 017°13'29411.3
2016-Jul-21 20:24N 59°37' E 023°13'1111.7
2016-Jul-21 19:27N 59°41' E 023°34'1111.7
2016-Jul-21 18:30N 59°44' E 023°55'1111.7
2016-Jul-21 17:31N 59°47' E 024°17'1411.6
2016-Jul-21 16:21N 59°49' E 024°43'5411.2
2016-Jul-21 11:33N 60°04' E 026°27'4 4.5
2016-Jul-21 10:33N 60°09' E 026°29'0 0.0
2016-Jul-21 09:33N 60°09' E 026°29'0 0.0
2016-Jul-21 08:31N 60°09' E 026°29'0 0.0
2016-Jul-21 07:31N 60°09' E 026°29'0 0.0
2016-Jul-21 04:32N 60°08' E 026°29'0 0.0
2016-Jul-21 03:29N 60°08' E 026°29'0 0.0
2016-Jul-21 02:26N 60°09' E 026°29'0 0.0
2016-Jul-21 01:32N 60°09' E 026°29'0 0.0
2016-Jul-21 00:32N 60°08' E 026°29'0 0.0
2016-Jul-20 23:32N 60°09' E 026°29'0 0.0
2016-Jul-20 22:32N 60°08' E 026°29'0 0.0
2016-Jul-20 21:29N 60°08' E 026°29'0 0.0
2016-Jul-20 20:33N 60°08' E 026°29'0 0.1
2016-Jul-20 19:33N 60°09' E 026°29'0 0.1
2016-Jul-20 18:34N 60°09' E 026°29'0 0.1
2016-Jul-20 17:31N 60°09' E 026°29'0 0.1
2016-Jul-20 16:33N 60°08' E 026°29'0 0.0
2016-Jul-20 15:33N 60°08' E 026°29'0 0.0
2016-Jul-20 14:30N 60°08' E 026°29'0 0.0
2016-Jul-20 13:12N 60°08' E 026°29'0 0.1
2016-Jul-20 12:33N 60°09' E 026°29'0 0.0
2016-Jul-20 11:33N 60°09' E 026°29'0 0.0
2016-Jul-20 10:33N 60°09' E 026°29'0 0.0
2016-Jul-20 09:33N 60°09' E 026°29'0 0.0
2016-Jul-20 08:33N 60°08' E 026°29'0 0.0
2016-Jul-20 07:33N 60°08' E 026°29'0 0.0
2016-Jul-20 06:33N 60°08' E 026°29'0 0.1
2016-Jul-20 05:33N 60°08' E 026°29'0 0.0
2016-Jul-20 04:27N 60°08' E 026°29'0 0.0
2016-Jul-20 03:33N 60°08' E 026°29'0 0.0
2016-Jul-20 02:33N 60°08' E 026°29'0 0.1
2016-Jul-20 01:33N 60°08' E 026°29'0 0.2
2016-Jul-20 00:33N 60°09' E 026°29'0 0.0
2016-Jul-19 23:33N 60°09' E 026°29'0 0.2
2016-Jul-19 22:33N 60°08' E 026°29'9 9.0
2016-Jul-19 21:34N 60°01' E 026°40'1211.9
2016-Jul-19 20:33N 59°60' E 027°04'1212.4
2016-Jul-19 19:33N 60°06' E 027°25'1212.4
2016-Jul-19 18:33N 60°13' E 027°46'1212.2
2016-Jul-19 17:33N 60°22' E 028°01'22 1.3
2016-Jul-19 01:10N 60°37' E 028°34'  
2016-Jul-16 19:15N 60°32' E 028°23'  

Dump ship's entire track history